sensor_id;sensor_type;location;lat;lon;timestamp;temperature;humidity
5007;DHT22;2522;50.972;11.046;2022-09-28T03:31:02;9.60;99.90
5007;DHT22;2522;50.972;11.046;2022-09-28T03:33:29;9.60;99.90
5007;DHT22;2522;50.972;11.046;2022-09-28T03:35:55;9.60;99.90
5007;DHT22;2522;50.972;11.046;2022-09-28T03:38:22;9.60;99.90
5007;DHT22;2522;50.972;11.046;2022-09-28T03:40:53;9.60;99.90
5007;DHT22;2522;50.972;11.046;2022-09-28T03:43:20;9.60;99.90
5007;DHT22;2522;50.972;11.046;2022-09-28T03:45:51;9.60;99.90
5007;DHT22;2522;50.972;11.046;2022-09-28T03:48:22;9.60;99.90
5007;DHT22;2522;50.972;11.046;2022-09-28T03:50:52;9.60;99.90
5007;DHT22;2522;50.972;11.046;2022-09-28T03:53:19;9.60;99.90
5007;DHT22;2522;50.972;11.046;2022-09-28T03:55:46;9.60;99.90
5007;DHT22;2522;50.972;11.046;2022-09-28T03:58:13;9.60;99.90
5007;DHT22;2522;50.972;11.046;2022-09-28T04:00:40;9.60;99.90
5007;DHT22;2522;50.972;11.046;2022-09-28T04:03:07;9.60;99.90
5007;DHT22;2522;50.972;11.046;2022-09-28T04:05:35;9.60;99.90
5007;DHT22;2522;50.972;11.046;2022-09-28T04:08:02;9.60;99.90
5007;DHT22;2522;50.972;11.046;2022-09-28T04:10:28;9.60;99.90
5007;DHT22;2522;50.972;11.046;2022-09-28T04:12:55;9.60;99.90
5007;DHT22;2522;50.972;11.046;2022-09-28T04:15:23;9.50;99.90
5007;DHT22;2522;50.972;11.046;2022-09-28T04:17:50;9.50;99.90
5007;DHT22;2522;50.972;11.046;2022-09-28T04:20:17;9.50;99.90
5007;DHT22;2522;50.972;11.046;2022-09-28T04:22:45;9.50;99.90
5007;DHT22;2522;50.972;11.046;2022-09-28T04:25:12;9.50;99.90
5007;DHT22;2522;50.972;11.046;2022-09-28T04:27:39;9.50;99.90
5007;DHT22;2522;50.972;11.046;2022-09-28T04:30:23;9.50;99.90
5007;DHT22;2522;50.972;11.046;2022-09-28T04:32:50;9.50;99.90
5007;DHT22;2522;50.972;11.046;2022-09-28T04:35:17;9.50;99.90
5007;DHT22;2522;50.972;11.046;2022-09-28T04:37:47;9.50;99.90
5007;DHT22;2522;50.972;11.046;2022-09-28T04:40:14;9.60;99.90
5007;DHT22;2522;50.972;11.046;2022-09-28T04:42:40;9.60;99.90
5007;DHT22;2522;50.972;11.046;2022-09-28T04:45:08;9.50;99.90
5007;DHT22;2522;50.972;11.046;2022-09-28T04:47:35;9.50;99.90
5007;DHT22;2522;50.972;11.046;2022-09-28T04:50:02;9.50;99.90
5007;DHT22;2522;50.972;11.046;2022-09-28T04:52:29;9.50;99.90
5007;DHT22;2522;50.972;11.046;2022-09-28T04:54:57;9.50;99.90
5007;DHT22;2522;50.972;11.046;2022-09-28T04:57:24;9.50;99.90
5007;DHT22;2522;50.972;11.046;2022-09-28T04:59:51;9.50;99.90
5007;DHT22;2522;50.972;11.046;2022-09-28T05:02:17;9.50;99.90
5007;DHT22;2522;50.972;11.046;2022-09-28T05:04:44;9.50;99.90
5007;DHT22;2522;50.972;11.046;2022-09-28T05:07:11;9.50;99.90
5007;DHT22;2522;50.972;11.046;2022-09-28T05:09:38;9.50;99.90
5007;DHT22;2522;50.972;11.046;2022-09-28T05:12:07;9.50;99.90
5007;DHT22;2522;50.972;11.046;2022-09-28T05:14:34;9.50;99.90
5007;DHT22;2522;50.972;11.046;2022-09-28T05:17:01;9.50;99.90
5007;DHT22;2522;50.972;11.046;2022-09-28T05:19:28;9.40;99.90
5007;DHT22;2522;50.972;11.046;2022-09-28T05:21:55;9.50;99.90
5007;DHT22;2522;50.972;11.046;2022-09-28T05:24:22;9.40;99.90
5007;DHT22;2522;50.972;11.046;2022-09-28T05:26:49;9.50;99.90
5007;DHT22;2522;50.972;11.046;2022-09-28T05:29:17;9.40;99.90
5007;DHT22;2522;50.972;11.046;2022-09-28T05:31:44;9.50;99.90
5007;DHT22;2522;50.972;11.046;2022-09-28T05:34:11;9.40;99.90
5007;DHT22;2522;50.972;11.046;2022-09-28T05:36:38;9.40;99.90
5007;DHT22;2522;50.972;11.046;2022-09-28T05:39:07;9.40;99.90
5007;DHT22;2522;50.972;11.046;2022-09-28T05:41:34;9.40;99.90
5007;DHT22;2522;50.972;11.046;2022-09-28T05:44:01;9.40;99.90
5007;DHT22;2522;50.972;11.046;2022-09-28T05:46:29;9.40;99.90
5007;DHT22;2522;50.972;11.046;2022-09-28T05:48:56;9.40;99.90
5007;DHT22;2522;50.972;11.046;2022-09-28T05:51:24;9.40;99.90
5007;DHT22;2522;50.972;11.046;2022-09-28T05:53:53;9.40;99.90
5007;DHT22;2522;50.972;11.046;2022-09-28T05:56:20;9.40;99.90
5007;DHT22;2522;50.972;11.046;2022-09-28T05:58:46;9.40;99.90
5007;DHT22;2522;50.972;11.046;2022-09-28T06:01:13;9.40;99.90
5007;DHT22;2522;50.972;11.046;2022-09-28T06:03:41;9.40;99.90
5007;DHT22;2522;50.972;11.046;2022-09-28T06:06:08;9.40;99.90
5007;DHT22;2522;50.972;11.046;2022-09-28T06:08:35;9.40;99.90
5007;DHT22;2522;50.972;11.046;2022-09-28T06:11:02;9.40;99.90
5007;DHT22;2522;50.972;11.046;2022-09-28T06:13:29;9.40;99.90
5007;DHT22;2522;50.972;11.046;2022-09-28T06:15:56;9.40;99.90
5007;DHT22;2522;50.972;11.046;2022-09-28T06:18:23;9.40;99.90
5007;DHT22;2522;50.972;11.046;2022-09-28T06:20:51;9.40;99.90
5007;DHT22;2522;50.972;11.046;2022-09-28T06:23:18;9.40;99.90
5007;DHT22;2522;50.972;11.046;2022-09-28T06:25:45;9.40;99.90
5007;DHT22;2522;50.972;11.046;2022-09-28T06:28:13;9.40;99.90
5007;DHT22;2522;50.972;11.046;2022-09-28T06:30:41;9.40;99.90
5007;DHT22;2522;50.972;11.046;2022-09-28T06:33:12;9.50;99.90
5007;DHT22;2522;50.972;11.046;2022-09-28T06:35:39;9.50;99.90
5007;DHT22;2522;50.972;11.046;2022-09-28T06:38:08;9.50;99.90
5007;DHT22;2522;50.972;11.046;2022-09-28T06:40:35;9.50;99.90
5007;DHT22;2522;50.972;11.046;2022-09-28T06:43:04;9.50;99.90
5007;DHT22;2522;50.972;11.046;2022-09-28T06:45:35;9.50;99.90
5007;DHT22;2522;50.972;11.046;2022-09-28T06:48:03;9.50;99.90
5007;DHT22;2522;50.972;11.046;2022-09-28T06:50:32;9.50;99.90
5007;DHT22;2522;50.972;11.046;2022-09-28T06:53:00;9.50;99.90
5007;DHT22;2522;50.972;11.046;2022-09-28T06:55:29;9.50;99.90
5007;DHT22;2522;50.972;11.046;2022-09-28T06:57:56;9.50;99.90
5007;DHT22;2522;50.972;11.046;2022-09-28T07:00:24;9.60;99.90
5007;DHT22;2522;50.972;11.046;2022-09-28T07:02:51;9.60;99.90
5007;DHT22;2522;50.972;11.046;2022-09-28T07:05:18;9.60;99.90
5007;DHT22;2522;50.972;11.046;2022-09-28T07:07:52;9.50;99.90
5007;DHT22;2522;50.972;11.046;2022-09-28T07:10:21;9.50;99.90
5007;DHT22;2522;50.972;11.046;2022-09-28T07:12:50;9.60;99.90
5007;DHT22;2522;50.972;11.046;2022-09-28T07:15:17;9.60;99.90
5007;DHT22;2522;50.972;11.046;2022-09-28T07:17:44;9.60;99.90
5007;DHT22;2522;50.972;11.046;2022-09-28T07:20:11;9.60;99.90
5007;DHT22;2522;50.972;11.046;2022-09-28T07:22:38;9.60;99.90
5007;DHT22;2522;50.972;11.046;2022-09-28T07:25:06;9.60;99.90
5007;DHT22;2522;50.972;11.046;2022-09-28T07:27:34;9.60;99.90
5007;DHT22;2522;50.972;11.046;2022-09-28T07:30:03;9.70;99.90
5007;DHT22;2522;50.972;11.046;2022-09-28T07:32:30;9.80;99.90
5007;DHT22;2522;50.972;11.046;2022-09-28T07:34:59;9.80;99.90
5007;DHT22;2522;50.972;11.046;2022-09-28T07:37:32;9.90;99.90
5007;DHT22;2522;50.972;11.046;2022-09-28T07:39:59;10.00;99.90
5007;DHT22;2522;50.972;11.046;2022-09-28T07:42:44;10.00;99.90
5007;DHT22;2522;50.972;11.046;2022-09-28T07:45:12;10.10;99.90
5007;DHT22;2522;50.972;11.046;2022-09-28T07:47:39;10.20;99.90
5007;DHT22;2522;50.972;11.046;2022-09-28T07:50:06;10.20;99.90
5007;DHT22;2522;50.972;11.046;2022-09-28T07:52:33;10.20;99.90
5007;DHT22;2522;50.972;11.046;2022-09-28T07:55:00;10.20;99.90
5007;DHT22;2522;50.972;11.046;2022-09-28T07:57:29;10.20;99.90
5007;DHT22;2522;50.972;11.046;2022-09-28T07:59:58;10.20;99.90
5007;DHT22;2522;50.972;11.046;2022-09-28T08:02:28;10.20;99.90
5007;DHT22;2522;50.972;11.046;2022-09-28T08:04:58;10.20;99.90
5007;DHT22;2522;50.972;11.046;2022-09-28T08:07:24;10.20;99.90
5007;DHT22;2522;50.972;11.046;2022-09-28T08:09:51;10.20;99.90
5007;DHT22;2522;50.972;11.046;2022-09-28T08:12:18;10.20;99.90
5007;DHT22;2522;50.972;11.046;2022-09-28T08:14:45;10.20;99.90
5007;DHT22;2522;50.972;11.046;2022-09-28T08:17:12;10.20;99.90
5007;DHT22;2522;50.972;11.046;2022-09-28T08:19:41;10.20;99.90
5007;DHT22;2522;50.972;11.046;2022-09-28T08:22:26;10.30;99.90
5007;DHT22;2522;50.972;11.046;2022-09-28T08:24:54;10.30;99.90
5007;DHT22;2522;50.972;11.046;2022-09-28T08:27:21;10.30;99.90
5007;DHT22;2522;50.972;11.046;2022-09-28T08:29:48;10.30;99.90
5007;DHT22;2522;50.972;11.046;2022-09-28T08:32:15;10.30;99.90
5007;DHT22;2522;50.972;11.046;2022-09-28T08:34:43;10.40;99.90
5007;DHT22;2522;50.972;11.046;2022-09-28T08:37:10;10.30;99.90
5007;DHT22;2522;50.972;11.046;2022-09-28T08:39:37;10.40;99.90
5007;DHT22;2522;50.972;11.046;2022-09-28T08:42:14;10.40;99.90
5007;DHT22;2522;50.972;11.046;2022-09-28T08:44:46;10.50;99.90
5007;DHT22;2522;50.972;11.046;2022-09-28T08:47:21;10.50;99.90
5007;DHT22;2522;50.972;11.046;2022-09-28T08:50:25;10.50;99.90
5007;DHT22;2522;50.972;11.046;2022-09-28T08:52:58;10.50;99.90
5007;DHT22;2522;50.972;11.046;2022-09-28T08:55:30;10.60;99.90
5007;DHT22;2522;50.972;11.046;2022-09-28T08:58:01;10.60;99.90
5007;DHT22;2522;50.972;11.046;2022-09-28T09:00:33;10.60;99.90
5007;DHT22;2522;50.972;11.046;2022-09-28T09:03:04;10.70;99.90
5007;DHT22;2522;50.972;11.046;2022-09-28T09:05:49;10.70;99.90
5007;DHT22;2522;50.972;11.046;2022-09-28T09:08:32;10.80;99.90
5007;DHT22;2522;50.972;11.046;2022-09-28T09:11:10;10.80;99.90
5007;DHT22;2522;50.972;11.046;2022-09-28T09:13:55;10.90;99.90
5007;DHT22;2522;50.972;11.046;2022-09-28T09:16:31;11.00;99.90
5007;DHT22;2522;50.972;11.046;2022-09-28T09:19:08;11.00;99.90
5007;DHT22;2522;50.972;11.046;2022-09-28T09:21:41;11.10;99.90
5007;DHT22;2522;50.972;11.046;2022-09-28T09:24:20;11.20;99.90
5007;DHT22;2522;50.972;11.046;2022-09-28T09:26:56;11.20;99.90
5007;DHT22;2522;50.972;11.046;2022-09-28T09:29:31;11.20;99.90
5007;DHT22;2522;50.972;11.046;2022-09-28T09:32:12;11.20;99.90
5007;DHT22;2522;50.972;11.046;2022-09-28T09:35:08;11.20;99.90
5007;DHT22;2522;50.972;11.046;2022-09-28T09:38:00;11.10;99.90
5007;DHT22;2522;50.972;11.046;2022-09-28T09:40:50;11.20;99.90
5007;DHT22;2522;50.972;11.046;2022-09-28T09:43:47;11.40;99.90
5007;DHT22;2522;50.972;11.046;2022-09-28T09:46:29;11.50;99.90
5007;DHT22;2522;50.972;11.046;2022-09-28T09:49:00;11.50;99.90
5007;DHT22;2522;50.972;11.046;2022-09-28T09:51:36;11.60;99.90
5007;DHT22;2522;50.972;11.046;2022-09-28T09:54:11;11.70;99.90
5007;DHT22;2522;50.972;11.046;2022-09-28T09:56:44;11.70;99.90
5007;DHT22;2522;50.972;11.046;2022-09-28T09:59:16;11.70;99.90
5007;DHT22;2522;50.972;11.046;2022-09-28T10:01:44;11.70;99.90
5007;DHT22;2522;50.972;11.046;2022-09-28T10:04:16;11.80;99.90
5007;DHT22;2522;50.972;11.046;2022-09-28T10:06:47;12.00;99.90
5007;DHT22;2522;50.972;11.046;2022-09-28T10:09:22;12.20;99.90
5007;DHT22;2522;50.972;11.046;2022-09-28T10:11:50;12.10;99.90
5007;DHT22;2522;50.972;11.046;2022-09-28T10:14:19;12.10;99.90
5007;DHT22;2522;50.972;11.046;2022-09-28T10:16:47;12.00;99.90
5007;DHT22;2522;50.972;11.046;2022-09-28T10:19:15;11.90;99.90
5007;DHT22;2522;50.972;11.046;2022-09-28T10:21:45;11.80;99.90
5007;DHT22;2522;50.972;11.046;2022-09-28T10:24:17;11.90;99.90
5007;DHT22;2522;50.972;11.046;2022-09-28T10:26:49;12.10;99.90
5007;DHT22;2522;50.972;11.046;2022-09-28T10:29:20;12.30;99.90
5007;DHT22;2522;50.972;11.046;2022-09-28T10:31:47;12.40;99.90
5007;DHT22;2522;50.972;11.046;2022-09-28T10:34:16;12.60;99.90
5007;DHT22;2522;50.972;11.046;2022-09-28T10:36:47;12.60;99.90
5007;DHT22;2522;50.972;11.046;2022-09-28T10:39:28;12.70;99.90
5007;DHT22;2522;50.972;11.046;2022-09-28T10:41:58;12.90;99.90
5007;DHT22;2522;50.972;11.046;2022-09-28T10:44:29;12.90;99.90
5007;DHT22;2522;50.972;11.046;2022-09-28T10:46:59;12.90;99.90
5007;DHT22;2522;50.972;11.046;2022-09-28T10:49:26;13.00;99.90
5007;DHT22;2522;50.972;11.046;2022-09-28T10:51:55;13.20;99.90
5007;DHT22;2522;50.972;11.046;2022-09-28T10:54:23;13.20;99.90
5007;DHT22;2522;50.972;11.046;2022-09-28T10:56:53;13.30;99.90
5007;DHT22;2522;50.972;11.046;2022-09-28T10:59:37;13.30;99.90
5007;DHT22;2522;50.972;11.046;2022-09-28T11:02:15;13.40;99.90
5007;DHT22;2522;50.972;11.046;2022-09-28T11:04:50;13.40;99.90
5007;DHT22;2522;50.972;11.046;2022-09-28T11:07:18;13.40;99.90
5007;DHT22;2522;50.972;11.046;2022-09-28T11:09:47;13.40;99.90
5007;DHT22;2522;50.972;11.046;2022-09-28T11:12:19;13.40;99.90
5007;DHT22;2522;50.972;11.046;2022-09-28T11:14:47;13.40;99.90
5007;DHT22;2522;50.972;11.046;2022-09-28T11:17:24;13.30;99.90
5007;DHT22;2522;50.972;11.046;2022-09-28T11:19:52;13.30;99.90
5007;DHT22;2522;50.972;11.046;2022-09-28T11:22:22;13.40;99.90
5007;DHT22;2522;50.972;11.046;2022-09-28T11:24:50;13.40;99.90
5007;DHT22;2522;50.972;11.046;2022-09-28T11:27:23;13.50;99.90
5007;DHT22;2522;50.972;11.046;2022-09-28T11:29:54;13.60;99.90
5007;DHT22;2522;50.972;11.046;2022-09-28T11:32:22;13.70;99.90
5007;DHT22;2522;50.972;11.046;2022-09-28T11:34:50;13.90;99.90
5007;DHT22;2522;50.972;11.046;2022-09-28T11:37:42;13.90;99.90
5007;DHT22;2522;50.972;11.046;2022-09-28T11:40:22;14.00;99.90
5007;DHT22;2522;50.972;11.046;2022-09-28T11:43:02;14.10;99.90
5007;DHT22;2522;50.972;11.046;2022-09-28T11:45:39;14.10;99.90
5007;DHT22;2522;50.972;11.046;2022-09-28T11:48:12;14.20;99.90
5007;DHT22;2522;50.972;11.046;2022-09-28T11:50:45;14.30;99.90
5007;DHT22;2522;50.972;11.046;2022-09-28T11:53:24;14.30;99.90
5007;DHT22;2522;50.972;11.046;2022-09-28T11:55:57;14.30;99.90
5007;DHT22;2522;50.972;11.046;2022-09-28T11:58:30;14.30;99.90
5007;DHT22;2522;50.972;11.046;2022-09-28T12:01:02;14.30;99.90
5007;DHT22;2522;50.972;11.046;2022-09-28T12:03:35;14.20;99.90
5007;DHT22;2522;50.972;11.046;2022-09-28T12:06:07;14.10;99.90
5007;DHT22;2522;50.972;11.046;2022-09-28T12:08:39;14.10;99.90
5007;DHT22;2522;50.972;11.046;2022-09-28T12:11:11;14.10;99.90
5007;DHT22;2522;50.972;11.046;2022-09-28T12:13:44;14.30;99.90
5007;DHT22;2522;50.972;11.046;2022-09-28T12:16:15;14.30;99.90
5007;DHT22;2522;50.972;11.046;2022-09-28T12:18:47;14.20;99.90
5007;DHT22;2522;50.972;11.046;2022-09-28T12:21:30;14.10;99.90
5007;DHT22;2522;50.972;11.046;2022-09-28T12:24:02;13.90;99.90
5007;DHT22;2522;50.972;11.046;2022-09-28T12:26:35;13.60;99.90
5007;DHT22;2522;50.972;11.046;2022-09-28T12:29:10;13.20;99.90
5007;DHT22;2522;50.972;11.046;2022-09-28T12:31:46;12.80;99.90
5007;DHT22;2522;50.972;11.046;2022-09-28T12:34:16;12.60;99.90
5007;DHT22;2522;50.972;11.046;2022-09-28T12:36:53;12.60;99.90
5007;DHT22;2522;50.972;11.046;2022-09-28T12:39:38;12.60;99.90
5007;DHT22;2522;50.972;11.046;2022-09-28T12:42:17;12.60;99.90
5007;DHT22;2522;50.972;11.046;2022-09-28T12:44:55;12.70;99.90
5007;DHT22;2522;50.972;11.046;2022-09-28T12:50:18;12.80;99.90
5007;DHT22;2522;50.972;11.046;2022-09-28T12:53:03;13.00;99.90
5007;DHT22;2522;50.972;11.046;2022-09-28T12:55:45;13.00;99.90
5007;DHT22;2522;50.972;11.046;2022-09-28T12:58:31;13.10;99.90
5007;DHT22;2522;50.972;11.046;2022-09-28T13:01:12;13.10;99.90
5007;DHT22;2522;50.972;11.046;2022-09-28T13:03:55;13.20;99.90
5007;DHT22;2522;50.972;11.046;2022-09-28T13:06:36;13.20;99.90
5007;DHT22;2522;50.972;11.046;2022-09-28T13:09:19;13.30;99.90
5007;DHT22;2522;50.972;11.046;2022-09-28T13:11:55;13.40;99.90
5007;DHT22;2522;50.972;11.046;2022-09-28T13:17:41;13.50;99.90
5007;DHT22;2522;50.972;11.046;2022-09-28T13:20:20;13.50;99.90
5007;DHT22;2522;50.972;11.046;2022-09-28T13:22:52;13.40;99.90
5007;DHT22;2522;50.972;11.046;2022-09-28T13:25:24;13.20;99.90
5007;DHT22;2522;50.972;11.046;2022-09-28T13:27:55;13.10;99.90
5007;DHT22;2522;50.972;11.046;2022-09-28T13:30:24;13.00;99.90
5007;DHT22;2522;50.972;11.046;2022-09-28T13:32:55;13.00;99.90
5007;DHT22;2522;50.972;11.046;2022-09-28T13:35:23;13.00;99.90
5007;DHT22;2522;50.972;11.046;2022-09-28T13:41:09;13.30;99.90
5007;DHT22;2522;50.972;11.046;2022-09-28T13:46:38;13.40;99.90
5007;DHT22;2522;50.972;11.046;2022-09-28T13:49:16;13.30;99.90
5007;DHT22;2522;50.972;11.046;2022-09-28T13:52:02;13.30;99.90
5007;DHT22;2522;50.972;11.046;2022-09-28T13:54:40;13.20;99.90
5007;DHT22;2522;50.972;11.046;2022-09-28T13:57:16;13.30;99.90
5007;DHT22;2522;50.972;11.046;2022-09-28T14:00:01;13.40;99.90
5007;DHT22;2522;50.972;11.046;2022-09-28T14:02:35;13.50;99.90
5007;DHT22;2522;50.972;11.046;2022-09-28T14:05:39;13.60;99.90
5007;DHT22;2522;50.972;11.046;2022-09-28T14:08:32;13.70;99.90
5007;DHT22;2522;50.972;11.046;2022-09-28T14:20:16;13.40;99.90
5007;DHT22;2522;50.972;11.046;2022-09-28T14:25:40;13.20;99.90
5007;DHT22;2522;50.972;11.046;2022-09-28T14:28:29;13.00;99.90
5007;DHT22;2522;50.972;11.046;2022-09-28T14:31:06;12.90;99.90
5007;DHT22;2522;50.972;11.046;2022-09-28T14:33:35;12.90;99.90
5007;DHT22;2522;50.972;11.046;2022-09-28T14:36:06;12.70;99.90
5007;DHT22;2522;50.972;11.046;2022-09-28T14:38:43;12.50;99.90
5007;DHT22;2522;50.972;11.046;2022-09-28T14:41:34;12.50;99.90
5007;DHT22;2522;50.972;11.046;2022-09-28T14:44:05;12.40;99.90
5007;DHT22;2522;50.972;11.046;2022-09-28T14:46:38;12.30;99.90
5007;DHT22;2522;50.972;11.046;2022-09-28T14:49:42;12.30;99.90
5007;DHT22;2522;50.972;11.046;2022-09-28T14:52:11;12.10;99.90
5007;DHT22;2522;50.972;11.046;2022-09-28T14:54:49;12.10;99.90
5007;DHT22;2522;50.972;11.046;2022-09-28T14:57:21;12.10;99.90
5007;DHT22;2522;50.972;11.046;2022-09-28T14:59:48;12.10;99.90
5007;DHT22;2522;50.972;11.046;2022-09-28T15:02:23;12.20;99.90
5007;DHT22;2522;50.972;11.046;2022-09-28T15:04:53;12.30;99.90
5007;DHT22;2522;50.972;11.046;2022-09-28T15:07:23;12.30;99.90
5007;DHT22;2522;50.972;11.046;2022-09-28T15:09:54;12.30;99.90
5007;DHT22;2522;50.972;11.046;2022-09-28T15:12:24;12.40;99.90
5007;DHT22;2522;50.972;11.046;2022-09-28T15:14:56;12.40;99.90
5007;DHT22;2522;50.972;11.046;2022-09-28T15:17:25;12.50;99.90
5007;DHT22;2522;50.972;11.046;2022-09-28T15:22:47;12.60;99.90
5007;DHT22;2522;50.972;11.046;2022-09-28T15:25:18;12.60;99.90
5007;DHT22;2522;50.972;11.046;2022-09-28T15:27:49;12.50;99.90
5007;DHT22;2522;50.972;11.046;2022-09-28T15:30:28;12.50;99.90
5007;DHT22;2522;50.972;11.046;2022-09-28T15:32:57;12.40;99.90
5007;DHT22;2522;50.972;11.046;2022-09-28T15:35:48;12.30;99.90
5007;DHT22;2522;50.972;11.046;2022-09-28T15:38:18;12.20;99.90
5007;DHT22;2522;50.972;11.046;2022-09-28T15:40:49;12.10;99.90
5007;DHT22;2522;50.972;11.046;2022-09-28T15:43:24;12.10;99.90
5007;DHT22;2522;50.972;11.046;2022-09-28T15:45:56;12.20;99.90
5007;DHT22;2522;50.972;11.046;2022-09-28T15:48:29;12.00;99.90
5007;DHT22;2522;50.972;11.046;2022-09-28T15:51:03;12.00;99.90
5007;DHT22;2522;50.972;11.046;2022-09-28T15:53:38;11.90;99.90
5007;DHT22;2522;50.972;11.046;2022-09-28T15:56:10;11.90;99.90
5007;DHT22;2522;50.972;11.046;2022-09-28T15:58:38;11.80;99.90
5007;DHT22;2522;50.972;11.046;2022-09-28T16:01:28;11.80;99.90
5007;DHT22;2522;50.972;11.046;2022-09-28T16:06:43;11.70;99.90
5007;DHT22;2522;50.972;11.046;2022-09-28T16:09:30;11.70;99.90
5007;DHT22;2522;50.972;11.046;2022-09-28T16:12:07;11.70;99.90
5007;DHT22;2522;50.972;11.046;2022-09-28T16:14:37;11.60;99.90
5007;DHT22;2522;50.972;11.046;2022-09-28T16:17:04;11.50;99.90
5007;DHT22;2522;50.972;11.046;2022-09-28T16:19:35;11.50;99.90
5007;DHT22;2522;50.972;11.046;2022-09-28T16:22:06;11.40;99.90
5007;DHT22;2522;50.972;11.046;2022-09-28T16:24:40;11.30;99.90
5007;DHT22;2522;50.972;11.046;2022-09-28T16:27:24;11.30;99.90
5007;DHT22;2522;50.972;11.046;2022-09-28T16:30:11;11.20;99.90
5007;DHT22;2522;50.972;11.046;2022-09-28T16:32:47;11.20;99.90
5007;DHT22;2522;50.972;11.046;2022-09-28T16:35:21;11.20;99.90
5007;DHT22;2522;50.972;11.046;2022-09-28T16:37:56;11.20;99.90
5007;DHT22;2522;50.972;11.046;2022-09-28T16:40:24;11.20;99.90
5007;DHT22;2522;50.972;11.046;2022-09-28T16:42:53;11.10;99.90
5007;DHT22;2522;50.972;11.046;2022-09-28T16:45:22;11.20;99.90
5007;DHT22;2522;50.972;11.046;2022-09-28T16:47:50;11.20;99.90
5007;DHT22;2522;50.972;11.046;2022-09-28T16:50:18;11.10;99.90
5007;DHT22;2522;50.972;11.046;2022-09-28T16:52:45;11.00;99.90
5007;DHT22;2522;50.972;11.046;2022-09-28T16:55:30;11.00;99.90
5007;DHT22;2522;50.972;11.046;2022-09-28T16:57:58;10.90;99.90
5007;DHT22;2522;50.972;11.046;2022-09-28T17:00:29;10.90;99.90
5007;DHT22;2522;50.972;11.046;2022-09-28T17:02:56;10.80;99.90
5007;DHT22;2522;50.972;11.046;2022-09-28T17:05:23;10.80;99.90
5007;DHT22;2522;50.972;11.046;2022-09-28T17:07:58;10.70;99.90
5007;DHT22;2522;50.972;11.046;2022-09-28T17:10:32;10.70;99.90
5007;DHT22;2522;50.972;11.046;2022-09-28T17:13:01;10.60;99.90
5007;DHT22;2522;50.972;11.046;2022-09-28T17:15:28;10.50;99.90
5007;DHT22;2522;50.972;11.046;2022-09-28T17:17:54;10.60;99.90
5007;DHT22;2522;50.972;11.046;2022-09-28T17:20:24;10.50;99.90
5007;DHT22;2522;50.972;11.046;2022-09-28T17:22:51;10.40;99.90
5007;DHT22;2522;50.972;11.046;2022-09-28T17:25:19;10.40;99.90
5007;DHT22;2522;50.972;11.046;2022-09-28T17:27:47;10.40;99.90
5007;DHT22;2522;50.972;11.046;2022-09-28T17:30:16;10.30;99.90
5007;DHT22;2522;50.972;11.046;2022-09-28T17:32:45;10.30;99.90
5007;DHT22;2522;50.972;11.046;2022-09-28T17:35:13;10.20;99.90
5007;DHT22;2522;50.972;11.046;2022-09-28T17:37:40;10.20;99.90
5007;DHT22;2522;50.972;11.046;2022-09-28T17:40:15;10.20;99.90
5007;DHT22;2522;50.972;11.046;2022-09-28T17:42:43;10.10;99.90
5007;DHT22;2522;50.972;11.046;2022-09-28T17:45:11;10.10;99.90
5007;DHT22;2522;50.972;11.046;2022-09-28T17:47:39;10.10;99.90
5007;DHT22;2522;50.972;11.046;2022-09-28T17:50:24;10.00;99.90
5007;DHT22;2522;50.972;11.046;2022-09-28T17:52:53;10.00;99.90
5007;DHT22;2522;50.972;11.046;2022-09-28T17:55:21;10.00;99.90
5007;DHT22;2522;50.972;11.046;2022-09-28T17:57:49;10.00;99.90
5007;DHT22;2522;50.972;11.046;2022-09-28T18:00:16;10.00;99.90
5007;DHT22;2522;50.972;11.046;2022-09-28T18:02:45;10.00;99.90
5007;DHT22;2522;50.972;11.046;2022-09-28T18:05:15;10.00;99.90
5007;DHT22;2522;50.972;11.046;2022-09-28T18:07:44;9.90;99.90
5007;DHT22;2522;50.972;11.046;2022-09-28T18:10:17;9.90;99.90
5007;DHT22;2522;50.972;11.046;2022-09-28T18:12:45;9.90;99.90
5007;DHT22;2522;50.972;11.046;2022-09-28T18:15:13;9.90;99.90
5007;DHT22;2522;50.972;11.046;2022-09-28T18:17:40;9.90;99.90
5007;DHT22;2522;50.972;11.046;2022-09-28T18:20:10;9.90;99.90
5007;DHT22;2522;50.972;11.046;2022-09-28T18:22:37;9.90;99.90
5007;DHT22;2522;50.972;11.046;2022-09-28T18:25:05;9.90;99.90
5007;DHT22;2522;50.972;11.046;2022-09-28T18:27:33;9.90;99.90
5007;DHT22;2522;50.972;11.046;2022-09-28T18:30:00;9.90;99.90
5007;DHT22;2522;50.972;11.046;2022-09-28T18:32:27;9.90;99.90
5007;DHT22;2522;50.972;11.046;2022-09-28T18:34:54;9.90;99.90
5007;DHT22;2522;50.972;11.046;2022-09-28T18:37:22;9.90;99.90
5007;DHT22;2522;50.972;11.046;2022-09-28T18:39:49;9.90;99.90
5007;DHT22;2522;50.972;11.046;2022-09-28T18:42:16;9.80;99.90
5007;DHT22;2522;50.972;11.046;2022-09-28T18:44:43;9.80;99.90
5007;DHT22;2522;50.972;11.046;2022-09-28T18:47:11;9.80;99.90
5007;DHT22;2522;50.972;11.046;2022-09-28T18:49:39;9.80;99.90
5007;DHT22;2522;50.972;11.046;2022-09-28T18:52:06;9.70;99.90
5007;DHT22;2522;50.972;11.046;2022-09-28T18:54:35;9.70;99.90
5007;DHT22;2522;50.972;11.046;2022-09-28T18:57:02;9.60;99.90
5007;DHT22;2522;50.972;11.046;2022-09-28T18:59:29;9.60;99.90
5007;DHT22;2522;50.972;11.046;2022-09-28T19:01:56;9.60;99.90
5007;DHT22;2522;50.972;11.046;2022-09-28T19:04:25;9.60;99.90
5007;DHT22;2522;50.972;11.046;2022-09-28T19:06:52;9.60;99.90
5007;DHT22;2522;50.972;11.046;2022-09-28T19:09:21;9.60;99.90
5007;DHT22;2522;50.972;11.046;2022-09-28T19:11:50;9.60;99.90
5007;DHT22;2522;50.972;11.046;2022-09-28T19:14:17;9.50;99.90
5007;DHT22;2522;50.972;11.046;2022-09-28T19:16:44;9.50;99.90
5007;DHT22;2522;50.972;11.046;2022-09-28T19:19:13;9.60;99.90
5007;DHT22;2522;50.972;11.046;2022-09-28T19:21:41;9.50;99.90
5007;DHT22;2522;50.972;11.046;2022-09-28T19:24:11;9.50;99.90
5007;DHT22;2522;50.972;11.046;2022-09-28T19:26:39;9.50;99.90
5007;DHT22;2522;50.972;11.046;2022-09-28T19:29:08;9.40;99.90
5007;DHT22;2522;50.972;11.046;2022-09-28T19:31:35;9.40;99.90
5007;DHT22;2522;50.972;11.046;2022-09-28T19:34:03;9.30;99.90
5007;DHT22;2522;50.972;11.046;2022-09-28T19:36:30;9.30;99.90
5007;DHT22;2522;50.972;11.046;2022-09-28T19:38:58;9.30;99.90
5007;DHT22;2522;50.972;11.046;2022-09-28T19:41:29;9.30;99.90
5007;DHT22;2522;50.972;11.046;2022-09-28T19:44:19;9.30;99.90
5007;DHT22;2522;50.972;11.046;2022-09-28T19:46:51;9.30;99.90
5007;DHT22;2522;50.972;11.046;2022-09-28T19:49:19;9.20;99.90
5007;DHT22;2522;50.972;11.046;2022-09-28T19:51:47;9.20;99.90
5007;DHT22;2522;50.972;11.046;2022-09-28T19:54:15;9.20;99.90
5007;DHT22;2522;50.972;11.046;2022-09-28T19:56:43;9.10;99.90
5007;DHT22;2522;50.972;11.046;2022-09-28T19:59:13;9.10;99.90
5007;DHT22;2522;50.972;11.046;2022-09-28T20:01:41;9.10;99.90
5007;DHT22;2522;50.972;11.046;2022-09-28T20:04:09;9.10;99.90
5007;DHT22;2522;50.972;11.046;2022-09-28T20:06:36;9.10;99.90
5007;DHT22;2522;50.972;11.046;2022-09-28T20:09:04;9.00;99.90
5007;DHT22;2522;50.972;11.046;2022-09-28T20:11:31;9.00;99.90
5007;DHT22;2522;50.972;11.046;2022-09-28T20:13:59;9.00;99.90
5007;DHT22;2522;50.972;11.046;2022-09-28T20:16:27;8.90;99.90
5007;DHT22;2522;50.972;11.046;2022-09-28T20:18:57;8.90;99.90